createdAt,value
2022-10-03T00:00:21.021Z,99.90
2022-10-03T00:03:14.967Z,99.90
2022-10-03T00:05:53.197Z,99.90
2022-10-03T00:08:59.733Z,99.90
2022-10-03T00:14:23.568Z,99.90
2022-10-03T00:17:05.909Z,99.90
2022-10-03T00:19:58.160Z,99.90
2022-10-03T00:22:41.500Z,99.90
2022-10-03T00:25:28.081Z,99.90
2022-10-03T00:28:28.255Z,99.90
2022-10-03T00:33:54.583Z,99.90
2022-10-03T00:36:35.073Z,99.90
2022-10-03T00:39:18.528Z,99.90
2022-10-03T00:42:05.070Z,99.90
2022-10-03T00:44:40.039Z,99.90
2022-10-03T00:47:46.755Z,99.90
2022-10-03T00:50:22.215Z,99.90
2022-10-03T00:52:52.158Z,99.90
2022-10-03T00:55:41.734Z,99.90
2022-10-03T00:58:15.807Z,99.90
2022-10-03T01:00:50.390Z,99.90
2022-10-03T01:03:44.254Z,99.90
2022-10-03T01:06:47.758Z,99.90
2022-10-03T01:09:18.626Z,99.90
2022-10-03T01:12:01.599Z,99.90
2022-10-03T01:14:40.904Z,99.90
2022-10-03T01:17:14.719Z,99.90
2022-10-03T01:19:58.464Z,99.90
2022-10-03T01:22:41.660Z,99.90
2022-10-03T01:25:38.159Z,99.90
2022-10-03T01:28:44.635Z,99.90
2022-10-03T01:31:14.001Z,99.90
2022-10-03T01:39:05.640Z,99.90
2022-10-03T01:41:52.112Z,99.90
2022-10-03T01:47:13.871Z,99.90
2022-10-03T01:49:47.386Z,99.90
2022-10-03T01:52:37.260Z,99.90
2022-10-03T01:55:23.337Z,99.90
2022-10-03T01:58:01.447Z,99.90
2022-10-03T02:00:36.036Z,99.90
2022-10-03T02:03:06.057Z,99.90
2022-10-03T02:06:00.145Z,99.90
2022-10-03T02:08:44.149Z,99.90
2022-10-03T02:11:22.525Z,99.90
2022-10-03T02:14:08.773Z,99.90
2022-10-03T02:16:44.849Z,99.90
2022-10-03T02:19:26.228Z,99.90
2022-10-03T02:21:56.581Z,99.90
2022-10-03T02:24:50.963Z,99.90
2022-10-03T02:27:38.351Z,99.90
2022-10-03T02:30:24.877Z,99.90
2022-10-03T02:33:25.090Z,99.90
2022-10-03T02:36:11.689Z,99.90
2022-10-03T02:38:50.644Z,99.90
2022-10-03T02:41:19.329Z,99.90
2022-10-03T02:46:18.761Z,99.90
2022-10-03T02:49:04.578Z,99.90
2022-10-03T02:51:48.057Z,99.90
2022-10-03T02:54:34.600Z,99.90
2022-10-03T02:57:29.440Z,99.90
2022-10-03T03:00:17.085Z,99.90
2022-10-03T03:03:23.563Z,99.90
2022-10-03T03:06:10.124Z,99.90
2022-10-03T03:08:58.115Z,99.90
2022-10-03T03:11:51.652Z,99.90
2022-10-03T03:14:57.305Z,99.90
2022-10-03T03:17:37.345Z,99.90
2022-10-03T03:20:21.936Z,99.90
2022-10-03T03:22:52.865Z,99.90
2022-10-03T03:25:23.848Z,99.90
2022-10-03T03:28:12.120Z,99.90
2022-10-03T03:30:52.308Z,99.90
2022-10-03T03:33:43.556Z,99.90
2022-10-03T03:36:17.262Z,99.90
2022-10-03T03:38:51.444Z,99.90
2022-10-03T03:44:06.777Z,99.90
2022-10-03T03:46:44.700Z,99.90
2022-10-03T03:49:12.560Z,99.90
2022-10-03T03:51:45.432Z,99.90
2022-10-03T03:54:34.427Z,99.90
2022-10-03T03:57:21.837Z,99.90
2022-10-03T04:00:03.504Z,99.90
2022-10-03T04:02:51.644Z,99.90
2022-10-03T04:08:45.796Z,99.90
2022-10-03T04:11:25.472Z,99.90
2022-10-03T04:14:08.617Z,99.90
2022-10-03T04:17:15.967Z,99.90
2022-10-03T04:19:48.577Z,99.90
2022-10-03T04:22:38.736Z,99.90
2022-10-03T04:25:20.583Z,99.90
2022-10-03T04:27:53.960Z,99.90
2022-10-03T04:30:38.748Z,99.90
2022-10-03T04:36:15.092Z,99.90
2022-10-03T04:39:02.706Z,99.90
2022-10-03T04:41:53.468Z,99.90
2022-10-03T04:44:55.895Z,99.90
2022-10-03T04:47:28.299Z,99.90
2022-10-03T04:50:00.571Z,99.90
2022-10-03T04:52:33.245Z,99.90
2022-10-03T04:55:23.900Z,99.90
2022-10-03T04:58:04.869Z,99.90
2022-10-03T05:01:00.102Z,99.90
2022-10-03T05:03:37.411Z,99.90
2022-10-03T05:06:44.967Z,99.90
2022-10-03T05:09:32.619Z,99.90
2022-10-03T05:12:10.379Z,99.90
2022-10-03T05:14:49.715Z,99.90
2022-10-03T05:17:24.796Z,99.90
2022-10-03T05:20:11.359Z,99.90
2022-10-03T05:22:47.031Z,99.90
2022-10-03T05:25:16.987Z,99.90
2022-10-03T05:28:08.732Z,99.90
2022-10-03T05:35:45.739Z,99.90
2022-10-03T05:38:46.334Z,99.90
2022-10-03T05:41:36.308Z,99.90
2022-10-03T05:44:09.678Z,99.90
2022-10-03T05:46:51.069Z,99.90
2022-10-03T05:49:38.654Z,99.90
2022-10-03T05:52:39.090Z,99.90
2022-10-03T05:58:15.029Z,99.90
2022-10-03T06:01:05.334Z,99.90
2022-10-03T06:04:07.618Z,99.90
2022-10-03T06:07:00.362Z,99.90
2022-10-03T06:09:34.266Z,99.90
2022-10-03T06:12:16.790Z,99.90
2022-10-03T06:15:03.075Z,99.90
2022-10-03T06:17:33.023Z,99.90
2022-10-03T06:20:24.134Z,99.90
2022-10-03T06:23:23.530Z,99.90
2022-10-03T06:26:15.361Z,99.90
2022-10-03T06:29:01.943Z,99.90
2022-10-03T06:31:51.638Z,99.90
2022-10-03T06:34:31.854Z,99.90
2022-10-03T06:37:38.374Z,99.90
2022-10-03T06:40:35.887Z,99.90
2022-10-03T06:43:42.411Z,99.90
2022-10-03T06:46:24.492Z,99.90
2022-10-03T06:49:31.105Z,99.90
2022-10-03T06:52:11.633Z,99.90
2022-10-03T06:54:48.842Z,99.90
2022-10-03T06:57:52.934Z,99.90
2022-10-03T07:00:24.408Z,99.90
2022-10-03T07:02:59.408Z,99.90
2022-10-03T07:05:53.524Z,99.90
2022-10-03T07:08:28.418Z,99.90
2022-10-03T07:11:10.679Z,99.90
2022-10-03T07:14:09.713Z,99.90
2022-10-03T07:17:04.598Z,99.90
2022-10-03T07:19:49.509Z,99.90
2022-10-03T07:22:56.025Z,99.90
2022-10-03T07:25:33.289Z,99.90
2022-10-03T07:28:35.418Z,99.90
2022-10-03T07:31:42.375Z,99.90
2022-10-03T07:34:49.243Z,99.90
2022-10-03T07:37:47.732Z,99.90
2022-10-03T07:40:40.570Z,99.90
2022-10-03T07:43:23.716Z,99.90
2022-10-03T07:46:22.876Z,99.90
2022-10-03T07:49:18.779Z,99.90
2022-10-03T07:52:00.690Z,99.90
2022-10-03T07:54:37.647Z,99.90
2022-10-03T07:57:12.434Z,99.90
2022-10-03T07:59:42.312Z,99.90
2022-10-03T08:02:36.305Z,99.90
2022-10-03T08:05:23.212Z,99.90
2022-10-03T08:08:33.449Z,99.90
2022-10-03T08:11:09.969Z,99.90
2022-10-03T08:14:17.088Z,99.90
2022-10-03T08:17:06.756Z,99.90
2022-10-03T08:19:57.609Z,99.90
2022-10-03T08:22:52.257Z,99.90
2022-10-03T08:25:58.841Z,99.90
2022-10-03T08:28:35.367Z,99.90
2022-10-03T08:31:36.777Z,99.90
2022-10-03T08:34:18.529Z,99.90
2022-10-03T08:37:00.884Z,99.90
2022-10-03T08:39:38.280Z,99.90
2022-10-03T08:42:32.382Z,99.90
2022-10-03T08:45:19.899Z,99.90
2022-10-03T08:48:09.081Z,99.90
2022-10-03T08:50:50.072Z,99.90
2022-10-03T08:53:39.884Z,99.90
2022-10-03T08:56:17.060Z,99.90
2022-10-03T08:59:09.156Z,99.90
2022-10-03T09:01:38.238Z,99.90
2022-10-03T09:04:45.061Z,99.90
2022-10-03T09:07:32.750Z,99.90
2022-10-03T09:10:10.653Z,99.90
2022-10-03T09:12:42.523Z,99.90
2022-10-03T09:15:32.897Z,99.90
2022-10-03T09:18:10.415Z,99.90
2022-10-03T09:21:00.383Z,99.90
2022-10-03T09:23:45.706Z,99.90
2022-10-03T09:26:46.727Z,99.90
2022-10-03T09:29:46.403Z,99.90
2022-10-03T09:32:48.005Z,99.90
2022-10-03T09:35:50.085Z,99.90
2022-10-03T09:38:43.939Z,99.90
2022-10-03T09:41:46.168Z,99.90
2022-10-03T09:44:52.701Z,99.90
2022-10-03T09:47:40.387Z,99.90
2022-10-03T09:50:41.563Z,99.90
2022-10-03T09:53:32.159Z,99.90
2022-10-03T09:56:26.268Z,99.90
2022-10-03T09:58:57.227Z,99.90
2022-10-03T10:01:52.423Z,99.90
2022-10-03T10:04:54.156Z,99.90
2022-10-03T10:07:42.735Z,99.90
2022-10-03T10:10:30.303Z,99.90
2022-10-03T10:13:17.047Z,99.90
2022-10-03T10:16:16.309Z,99.90
2022-10-03T10:19:14.382Z,99.90
2022-10-03T10:22:02.029Z,94.90
2022-10-03T10:24:56.135Z,94.30
2022-10-03T10:27:55.229Z,92.00
2022-10-03T10:31:01.890Z,93.40
2022-10-03T10:33:44.228Z,99.10
2022-10-03T10:36:48.909Z,98.50
2022-10-03T10:39:30.344Z,99.90
2022-10-03T10:42:17.911Z,96.30
2022-10-03T10:44:51.970Z,96.80
2022-10-03T10:47:41.918Z,99.90
2022-10-03T10:50:34.563Z,91.20
2022-10-03T10:53:41.022Z,90.70
2022-10-03T10:56:44.180Z,90.20
2022-10-03T10:59:43.382Z,94.20
2022-10-03T11:02:45.643Z,96.90
2022-10-03T11:05:52.174Z,97.40
2022-10-03T11:08:38.791Z,91.10
2022-10-03T11:11:25.346Z,84.70
2022-10-03T11:14:32.259Z,77.90
2022-10-03T11:17:20.030Z,82.30
2022-10-03T11:20:26.782Z,84.50
2022-10-03T11:23:28.982Z,86.20
2022-10-03T11:25:58.883Z,86.20
2022-10-03T11:29:05.702Z,89.80
2022-10-03T11:31:55.593Z,85.30
2022-10-03T11:34:43.290Z,78.20
2022-10-03T11:37:31.047Z,75.40
2022-10-03T11:39:58.759Z,75.70
2022-10-03T11:43:05.349Z,80.00
2022-10-03T11:45:42.752Z,74.20
2022-10-03T11:48:32.730Z,74.10
2022-10-03T11:51:10.901Z,77.90
2022-10-03T11:53:44.486Z,79.70
2022-10-03T11:56:27.502Z,79.30
2022-10-03T11:59:00.781Z,81.40
2022-10-03T12:02:07.331Z,82.60
2022-10-03T12:04:44.826Z,83.10
2022-10-03T12:08:11.230Z,84.60
2022-10-03T12:10:49.497Z,75.30
2022-10-03T12:13:22.657Z,72.90
2022-10-03T12:15:52.545Z,73.80
2022-10-03T12:18:39.105Z,76.30
2022-10-03T12:21:09.509Z,77.20
2022-10-03T12:23:57.093Z,81.70
2022-10-03T12:26:40.570Z,78.80
2022-10-03T12:29:11.994Z,80.90
2022-10-03T12:31:52.059Z,78.50
2022-10-03T12:34:29.562Z,79.50
2022-10-03T12:37:25.166Z,78.10
2022-10-03T12:40:12.267Z,77.50
2022-10-03T12:42:40.864Z,78.80
2022-10-03T12:45:32.672Z,83.40
2022-10-03T12:48:02.958Z,80.50
2022-10-03T12:50:50.719Z,78.20
2022-10-03T12:53:17.604Z,75.80
2022-10-03T12:56:06.408Z,77.30
2022-10-03T12:59:01.205Z,77.10
2022-10-03T13:01:49.234Z,77.90
2022-10-03T13:04:36.047Z,78.90
2022-10-03T13:07:15.163Z,79.10
2022-10-03T13:10:02.694Z,79.60
2022-10-03T13:12:35.477Z,79.30
2022-10-03T13:15:23.700Z,78.70
2022-10-03T13:18:04.736Z,80.10
2022-10-03T13:20:34.085Z,80.00
2022-10-03T13:23:09.632Z,80.50
2022-10-03T13:25:46.729Z,81.30
2022-10-03T13:28:21.630Z,79.90
2022-10-03T13:30:57.628Z,78.50
2022-10-03T13:33:28.176Z,77.90
2022-10-03T13:36:10.179Z,76.90
2022-10-03T13:39:07.172Z,76.40
2022-10-03T13:41:38.438Z,75.10
2022-10-03T13:44:12.789Z,72.80
2022-10-03T13:46:53.318Z,63.80
2022-10-03T13:49:25.541Z,57.50
2022-10-03T13:52:02.900Z,57.40
2022-10-03T13:55:07.130Z,59.70
2022-10-03T13:57:42.432Z,63.00
2022-10-03T14:00:13.684Z,66.30
2022-10-03T14:03:00.970Z,67.40
2022-10-03T14:05:55.167Z,66.60
2022-10-03T14:08:49.921Z,68.20
2022-10-03T14:11:22.876Z,69.80
2022-10-03T14:14:09.532Z,71.10
2022-10-03T14:16:43.307Z,70.60
2022-10-03T14:19:33.714Z,70.40
2022-10-03T14:22:23.675Z,72.50
2022-10-03T14:25:30.247Z,70.20
2022-10-03T14:28:06.830Z,71.30
2022-10-03T14:31:07.083Z,72.50
2022-10-03T14:34:04.730Z,72.80
2022-10-03T14:36:31.495Z,72.10
2022-10-03T14:39:23.468Z,76.10
2022-10-03T14:42:30.035Z,76.10
2022-10-03T14:45:01.422Z,76.10
2022-10-03T14:47:36.581Z,77.80
2022-10-03T14:50:05.519Z,76.50
2022-10-03T14:52:45.507Z,78.40
2022-10-03T14:55:15.663Z,78.70
2022-10-03T14:58:09.192Z,79.40
2022-10-03T15:00:42.966Z,78.20
2022-10-03T15:03:17.184Z,80.00
2022-10-03T15:06:02.140Z,80.30
2022-10-03T15:08:37.740Z,80.40
2022-10-03T15:11:06.487Z,79.30
2022-10-03T15:13:40.151Z,79.90
2022-10-03T15:16:10.195Z,82.10
2022-10-03T15:18:39.282Z,77.50
2022-10-03T15:21:13.487Z,71.60
2022-10-03T15:23:44.192Z,70.50
2022-10-03T15:26:19.598Z,64.50
2022-10-03T15:28:50.647Z,59.70
2022-10-03T15:31:37.060Z,59.00
2022-10-03T15:34:25.562Z,59.50
2022-10-03T15:37:07.816Z,61.60
2022-10-03T15:39:37.192Z,66.30
2022-10-03T15:42:31.473Z,70.30
2022-10-03T15:45:02.084Z,73.90
2022-10-03T15:47:32.333Z,77.90
2022-10-03T15:50:07.370Z,80.00
2022-10-03T15:52:43.393Z,82.70
2022-10-03T15:55:18.316Z,85.50
2022-10-03T15:57:47.578Z,87.10
2022-10-03T16:00:26.082Z,89.00
2022-10-03T16:03:02.779Z,90.20
2022-10-03T16:05:30.821Z,90.50
2022-10-03T16:08:06.897Z,91.30
2022-10-03T16:10:39.704Z,92.30
2022-10-03T16:13:38.897Z,93.20
2022-10-03T16:16:13.639Z,94.40
2022-10-03T16:19:00.540Z,95.80
2022-10-03T16:21:51.728Z,96.70
2022-10-03T16:24:31.615Z,97.50
2022-10-03T16:27:08.224Z,98.30
2022-10-03T16:29:38.611Z,98.80
2022-10-03T16:32:09.251Z,99.50
2022-10-03T16:34:41.583Z,99.90
2022-10-03T16:37:18.673Z,99.90
2022-10-03T16:39:53.484Z,99.90
2022-10-03T16:42:25.665Z,99.90
2022-10-03T16:44:56.075Z,99.90
2022-10-03T16:47:37.734Z,99.90
2022-10-03T16:50:25.938Z,99.90
2022-10-03T16:52:57.481Z,99.90
2022-10-03T16:55:34.507Z,99.90
2022-10-03T16:58:20.952Z,99.90
2022-10-03T17:01:26.790Z,99.90
2022-10-03T17:04:00.012Z,99.90
2022-10-03T17:06:31.739Z,99.90
2022-10-03T17:09:02.883Z,99.90
2022-10-03T17:11:34.724Z,99.90
2022-10-03T17:14:07.059Z,99.90
2022-10-03T17:16:44.932Z,99.90
2022-10-03T17:19:51.606Z,99.90
2022-10-03T17:22:29.035Z,99.90
2022-10-03T17:25:05.039Z,99.90
2022-10-03T17:27:38.107Z,99.90
2022-10-03T17:30:14.247Z,99.90
2022-10-03T17:32:44.982Z,99.90
2022-10-03T17:35:21.259Z,99.90
2022-10-03T17:37:53.371Z,99.90
2022-10-03T17:40:31.642Z,99.90
2022-10-03T17:43:22.686Z,99.90
2022-10-03T17:46:12.704Z,99.90
2022-10-03T17:48:49.967Z,99.90
2022-10-03T17:51:38.550Z,99.90
2022-10-03T17:54:15.190Z,99.90
2022-10-03T17:56:49.351Z,99.90
2022-10-03T17:59:24.811Z,99.90
2022-10-03T18:01:55.872Z,99.90
2022-10-03T18:04:37.624Z,99.90
2022-10-03T18:07:12.173Z,99.90
2022-10-03T18:09:46.341Z,99.90
2022-10-03T18:12:25.546Z,99.90
2022-10-03T18:15:12.210Z,99.90
2022-10-03T18:17:55.827Z,99.90
2022-10-03T18:20:52.054Z,99.90
2022-10-03T18:23:50.061Z,99.90
2022-10-03T18:26:27.055Z,99.90
2022-10-03T18:29:16.182Z,99.90
2022-10-03T18:31:50.266Z,99.90
2022-10-03T18:34:24.022Z,99.90
2022-10-03T18:36:54.218Z,99.90
2022-10-03T18:39:31.850Z,99.90
2022-10-03T18:42:01.566Z,99.90
2022-10-03T18:44:32.548Z,99.90
2022-10-03T18:47:17.643Z,99.90
2022-10-03T18:49:54.590Z,99.90
2022-10-03T18:52:28.860Z,99.90
2022-10-03T18:55:03.054Z,99.90
2022-10-03T18:57:38.318Z,99.90
2022-10-03T19:00:08.943Z,99.90
2022-10-03T19:02:43.145Z,99.90
2022-10-03T19:05:20.634Z,99.90
2022-10-03T19:08:11.339Z,99.90
2022-10-03T19:10:42.869Z,99.90
2022-10-03T19:13:24.785Z,99.90
2022-10-03T19:16:04.766Z,99.90
2022-10-03T19:18:42.121Z,99.90
2022-10-03T19:21:18.938Z,99.90
2022-10-03T19:23:58.324Z,99.90
2022-10-03T19:26:33.532Z,99.90
2022-10-03T19:29:08.451Z,99.90
2022-10-03T19:31:41.663Z,99.90
2022-10-03T19:34:35.781Z,99.90
2022-10-03T19:37:05.944Z,99.90
2022-10-03T19:39:33.860Z,99.90
2022-10-03T19:42:22.905Z,99.90
2022-10-03T19:44:50.091Z,99.90
2022-10-03T19:47:22.076Z,99.90
2022-10-03T19:50:00.213Z,99.90
2022-10-03T19:52:31.319Z,99.90
2022-10-03T19:55:02.016Z,99.90
2022-10-03T19:57:36.777Z,99.90
2022-10-03T20:00:19.025Z,99.90
2022-10-03T20:02:57.272Z,99.90
2022-10-03T20:05:31.803Z,99.90
2022-10-03T20:08:17.125Z,99.90
2022-10-03T20:10:58.260Z,99.90
2022-10-03T20:13:24.968Z,99.90
2022-10-03T20:15:52.564Z,99.90
2022-10-03T20:18:25.011Z,99.90
2022-10-03T20:20:54.872Z,99.90
2022-10-03T20:23:25.104Z,99.90
2022-10-03T20:26:04.413Z,99.90
2022-10-03T20:28:44.749Z,99.90
2022-10-03T20:31:11.932Z,99.90
2022-10-03T20:33:38.808Z,99.90
2022-10-03T20:36:27.029Z,99.90
2022-10-03T20:39:03.649Z,99.90
2022-10-03T20:41:37.894Z,99.90
2022-10-03T20:44:06.800Z,99.90
2022-10-03T20:46:41.804Z,99.90
2022-10-03T20:49:33.291Z,99.90
2022-10-03T20:52:03.542Z,99.90
2022-10-03T20:54:36.668Z,99.90
2022-10-03T20:57:14.127Z,99.90
2022-10-03T20:59:49.922Z,99.90
2022-10-03T21:02:40.526Z,99.90
2022-10-03T21:05:14.516Z,99.90
2022-10-03T21:07:49.271Z,99.90
2022-10-03T21:10:38.472Z,99.90
2022-10-03T21:13:12.620Z,99.90
2022-10-03T21:15:57.720Z,99.90
2022-10-03T21:18:30.017Z,99.90
2022-10-03T21:21:26.846Z,99.90
2022-10-03T21:23:59.567Z,99.90
2022-10-03T21:26:31.378Z,99.90
2022-10-03T21:29:17.879Z,99.90
2022-10-03T21:32:09.766Z,99.90
2022-10-03T21:35:11.567Z,99.90
2022-10-03T21:37:41.459Z,99.90
2022-10-03T21:40:38.079Z,99.90
2022-10-03T21:43:20.218Z,99.90
2022-10-03T21:45:53.127Z,99.90
2022-10-03T21:48:26.673Z,99.90
2022-10-03T21:51:14.935Z,99.90
2022-10-03T21:54:13.899Z,99.90
2022-10-03T21:57:11.616Z,99.90
2022-10-03T22:00:01.418Z,99.90
2022-10-03T22:02:48.043Z,99.90
2022-10-03T22:05:37.352Z,99.90
2022-10-03T22:08:22.792Z,99.90
2022-10-03T22:11:29.331Z,99.90
2022-10-03T22:14:22.632Z,99.90
2022-10-03T22:16:55.222Z,99.90
2022-10-03T22:19:40.996Z,99.90
2022-10-03T22:22:07.670Z,99.90
2022-10-03T22:24:43.579Z,99.90
2022-10-03T22:27:24.128Z,99.90
2022-10-03T22:29:59.603Z,99.90
2022-10-03T22:32:38.150Z,99.90
2022-10-03T22:35:18.883Z,99.90
2022-10-03T22:37:45.970Z,99.90
2022-10-03T22:40:13.239Z,99.90
2022-10-03T22:42:45.454Z,99.90
2022-10-03T22:45:16.959Z,99.90
2022-10-03T22:47:50.203Z,99.90
2022-10-03T22:50:20.530Z,99.90
2022-10-03T22:52:51.855Z,99.90
2022-10-03T22:55:22.012Z,99.90
2022-10-03T22:57:50.129Z,99.90
2022-10-03T23:00:22.955Z,99.90
2022-10-03T23:02:56.464Z,99.90
2022-10-03T23:06:03.027Z,99.90
2022-10-03T23:08:39.670Z,99.90
2022-10-03T23:11:28.562Z,99.90
2022-10-03T23:13:57.914Z,99.90
2022-10-03T23:17:04.362Z,99.90
2022-10-03T23:19:52.906Z,99.90
2022-10-03T23:22:24.421Z,99.90
2022-10-03T23:24:57.104Z,99.90
2022-10-03T23:27:42.308Z,99.90
2022-10-03T23:30:12.203Z,99.90
2022-10-03T23:32:54.330Z,99.90
2022-10-03T23:35:41.073Z,99.90
2022-10-03T23:38:30.903Z,99.90
2022-10-03T23:41:01.909Z,99.90
2022-10-03T23:43:37.550Z,99.90
2022-10-03T23:46:11.426Z,99.90
2022-10-03T23:48:50.166Z,99.90
2022-10-03T23:51:21.098Z,99.90
2022-10-03T23:53:51.461Z,99.90
2022-10-03T23:56:21.367Z,99.90
2022-10-03T23:59:03.407Z,99.90
